Georginio Aké

Chefscout - Twente
4 Apr 2027
Sonntag
Verarbeitung

Persönlichkeit

Anpassungsfähigkeit (3) Ehrgeiz (20) Kontroverse (18) Loyalität (3) Druck (11) Professionalität (12) Fairness (17) Temperament (1)

Profil

Trainerstil Demokratisch
Lizenz Kontinentale Pro
Entschlossenheit 6
Menschenführung 11
Motivation 14
Disziplin 11
Arbeitszufriedenheit
100%
Ermüdung
0%
Rolle Chefscout
Gehalt 103.3K p/W
Vertrag 14.03.2029

Leistung

Verhalten Gut
Trainingseffektivität
44%
Spielerentwicklung
45%
Verletzungsprävention
60%
Taktische Umsetzung
30%

Letzte Ereignisse

Nahm an einer Scouting-Besprechung teil jetzt
Empfahl ein Transferziel jetzt
Empfahl ein Transferziel jetzt
Empfahl ein Transferziel jetzt
Nahm an einer Scouting-Besprechung teil jetzt
Spieler begutachtet jetzt
Spieler begutachtet jetzt
Spieler begutachtet 7T her

Aktuell beobachtet

242
Spieler Verein Status Fähigkeit Vertrauen Beobachtet Zuletzt beobachtet Letzte Stimme
Lucas Agazzi Defensor Sporting Aktiv 118 / 122 40% 3 03.04.2027 -
Jakub Adkonis Lechia Aktiv 84 / 90 40% 4 03.04.2027 -
Leandro Martins Benfica Aktiv 89 / 90 40% 3 03.04.2027 -
Elijah Dijkstra Feyenoord Aktiv 129 / 138 40% 2 02.04.2027 -
Godwin Oham Warri Wolves Aktiv 92 / 77 40% 1 02.04.2027 -
João Teixeira Porto Aktiv 114 / 110 40% 1 02.04.2027 -
José Pachuca Puebla Aktiv 112 / 118 40% 4 31.03.2027 -
Gonçalo Oliveira Benfica Aktiv 106 / 109 40% 3 31.03.2027 -
Harrison Murray-Campbell Chelsea Aktiv 106 / 109 40% 2 31.03.2027 -
Théo Hansen Hobro Aktiv 100 / 88 40% 2 30.03.2027 -
Surprise Manthosi Polokwane City Aktiv 94 / 108 40% 3 30.03.2027 -
Kaick FC Dallas Aktiv 95 / 118 40% 1 30.03.2027 -
Facundo Di Biasi Gimnasia La Plata Aktiv 116 / 118 40% 2 28.03.2027 -
Cheveyo Tsawa KAA Gent Aktiv 114 / 129 40% 2 28.03.2027 -
Agustín Medina Lanús Aktiv 113 / 119 40% 1 28.03.2027 -
Vanja Tomić Radnicki 1923 Aktiv 91 / 89 40% 2 26.03.2027 -
Emirhan Başyiğit Sivasspor Aktiv 112 / 114 40% 5 24.03.2027 -
Simone Kosijer Triestina Aktiv 94 / 103 40% 2 24.03.2027 -
Halam Loboa Independiente Medellin Aktiv 119 / 132 40% 2 23.03.2027 -
Sergi Domínguez Dinamo Zagreb Aktiv 125 / 128 40% 2 23.03.2027 -
Andrija Bulatović RC Lens Aktiv 115 / 126 40% 2 23.03.2027 -
Cemran Dansin Orlando Pirates Aktiv 113 / 126 40% 3 21.03.2027 -
Obed Vargas Atlético Madrid Aktiv 123 / 132 40% 2 21.03.2027 -
Vanja Dragojević Partizan Aktiv 105 / 117 40% 2 19.03.2027 -
Miguel Vegas Portuguesa Aktiv 92 / 101 40% 1 19.03.2027 -
Eliás Montiel Pachuca Aktiv 132 / 134 40% 3 18.03.2027 -
Josué Kongolo Racing Genk Aktiv 111 / 121 40% 1 18.03.2027 -
Samuele di Benedetto Charlton Athletic Aktiv 115 / 117 40% 1 17.03.2027 -
Juho Lähteenmäki FC Nordsjaelland Aktiv 114 / 139 40% 2 15.03.2027 -
Jon Garro Real Sociedad Aktiv 85 / 94 40% 2 15.03.2027 -
Joseph Jones Kryvbas Aktiv 91 / 84 40% 1 14.03.2027 -
Sabil Hansen Randers Aktiv 97 / 112 40% 3 13.03.2027 -
Jayden Spier Willem II Aktiv 97 / 103 40% 1 13.03.2027 -
Federico Valentini Forli Aktiv 87 / 91 40% 2 09.03.2027 -
Axel Tape Bayer Leverkusen Aktiv 128 / 125 40% 2 09.03.2027 -
Nacer Tielemans Mouscron Aktiv 128 / 141 40% 7 28.02.2027 -
Ignacio Perruzzi San Lorenzo Aktiv 122 / 119 40% 1 26.02.2027 -
Luca Barani Forli Aktiv 89 / 100 40% 1 26.02.2027 -
Adam Aznou Everton Aktiv 130 / 135 40% 1 26.02.2027 -
Juan Morán Alavés Aktiv 102 / 116 40% 1 25.02.2027 -
Martim Cunha Porto Aktiv 100 / 107 40% 1 25.02.2027 -
Arjan Malić Sturm Graz Aktiv 113 / 118 40% 2 23.02.2027 -
Mbekezeli Mbokazi Chicago Fire Aktiv 115 / 116 40% 1 23.02.2027 -
Jeremiah Esajas AZ Aktiv 93 / 109 40% 1 21.02.2027 -
Philippe Ndinga Philadelphia Union Aktiv 122 / 116 40% 1 20.02.2027 -
Riyad Idrissi Cagliari Aktiv 116 / 120 40% 2 18.02.2027 -
Sergio Quintero La Equidad Aktiv 134 / 138 40% 1 12.02.2027 -
Breno Bidon Corinthians Aktiv 130 / 132 40% 1 12.02.2027 -
Tiago Freitas Benfica Aktiv 113 / 118 40% 1 08.02.2027 -
Luther Ngcobo Ajax Cape Town Aktiv 83 / 105 40% 1 03.02.2027 -
Ivan Edson Veracruz Aktiv 136 / 127 40% 2 30.01.2027 -
Danil Glebov Dinamo Moscow Aktiv 117 / 124 40% 2 30.01.2027 -
Vinicius Tobias Shakhtar Aktiv 139 / 126 40% 2 30.01.2027 -
Víctor Guzmán Monterrey Aktiv 121 / 137 40% 2 28.01.2027 -
Matteo Dams Club Brugge Aktiv 133 / 125 40% 1 28.01.2027 -
Luciano Juba Bahia Aktiv 142 / 141 40% 1 27.01.2027 -
Luke Thomas Leicester City Aktiv 130 / 136 40% 1 26.01.2027 -
Damián Bobadilla Sport Recife Aktiv 134 / 135 40% 1 26.01.2027 -
Franco Romero Toluca Aktiv 133 / 124 40% 1 20.01.2027 -
Ramón Juárez Club America Aktiv 130 / 123 40% 1 20.01.2027 -
Ki-Jana Hoever Sparta Prague Aktiv 125 / 116 40% 1 17.01.2027 -
Alexandr Chernikov Krasnodar Aktiv 125 / 141 40% 1 17.01.2027 -
Sebastián Cáceres Club America Aktiv 138 / 133 40% 3 16.01.2027 -
Santiago Sosa Vasco da Gama Aktiv 138 / 132 40% 2 16.01.2027 -
Federico Pereira Toluca Abgelehnt 144 / 148 40% 1 16.01.2027 Mehr Infos nötig
Juan Pablo Freytes Fluminense Aktiv 136 / 125 40% 1 15.01.2027 -
Gustavo Marques Bragantino Aktiv 131 / 125 40% 2 14.01.2027 -
Michy Lukaku Mouscron Aktiv 127 / 131 40% 1 14.01.2027 -
Aiham Ousou Charleroi Aktiv 127 / 126 40% 1 14.01.2027 -
Victor Parada Spartak Moscow Aktiv 126 / 124 40% 1 13.01.2027 -
Erik Lira Cruz Azul Aktiv 133 / 147 40% 1 13.01.2027 -
Marlon Gomes Shakhtar Aktiv 124 / 143 40% 1 13.01.2027 -
Israel Reyes Club America Abgelehnt 129 / 138 68% 2 12.01.2027 Ablehnen
Braian Aguirre Internacional Aktiv 129 / 137 40% 1 12.01.2027 -
Marcus Holmgren Pedersen Olympiacos Aktiv 127 / 120 40% 1 11.01.2027 -
Ivan Perišić PSV Aktiv 146 / 145 69% 1 07.01.2027 Befürworten
Marcos Paulo Juventude Aktiv 121 / 123 40% 3 02.01.2027 -
Matheus Nascimento Le Havre AC Aktiv 117 / 115 40% 1 02.01.2027 -
Sampson Dweh Viktoria Plzen Aktiv 133 / 134 66% 1 01.01.2027 Befürworten
Federico Pereira Toluca Verloren 135 / 135 68% 1 01.01.2027 Mehr Infos nötig
Marcel Ruiz Toluca Bericht bereit 140 / 141 66% 1 01.01.2027 Befürworten
Jefry Zapata Once Caldas Aktiv 122 / 117 40% 5 31.12.2026 -
Duk Atlas Aktiv 124 / 110 40% 3 31.12.2026 -
Lorent Tolaj Plymouth Argyle Aktiv 111 / 111 40% 4 29.12.2026 -
Tamerlan Musaev CSKA Moscow Aktiv 110 / 108 40% 3 29.12.2026 -
Ola Solbakken FC Nordsjaelland Aktiv 131 / 138 40% 1 29.12.2026 -
Jhojan Julio Queretaro Aktiv 117 / 119 40% 5 28.12.2026 -
Gustavo Silva Juventude Aktiv 127 / 131 40% 3 28.12.2026 -
Diber Cambindo Leon Aktiv 141 / 129 40% 7 27.12.2026 -
Fashion Sakala Al-Fayha Aktiv 120 / 135 40% 8 27.12.2026 -
Mourad Tijuana Aktiv 118 / 107 40% 3 27.12.2026 -
Luca Orellano Monterrey Aktiv 129 / 144 40% 3 26.12.2026 -
Thibault Barbier Tours Aktiv 129 / 123 40% 1 26.12.2026 -
Gabriel Taliari Juventude Aktiv 119 / 116 40% 1 26.12.2026 -
Yegor Golenkov Rostov Aktiv 107 / 108 40% 1 24.12.2026 -
Kein Sato FC Tokyo Aktiv 127 / 131 40% 1 24.12.2026 -
Andras Szalai Haladas Aktiv 136 / 112 40% 2 22.12.2026 -
Mehdi Ghayedi Al Nasr Aktiv 137 / 116 40% 1 22.12.2026 Mehr Infos nötig
Efraín Álvarez Guadalajara Aktiv 140 / 138 40% 4 20.12.2026 -
Kévin Cabral Red Star Aktiv 120 / 119 40% 1 20.12.2026 -
Alan Velasco Boca Juniors Aktiv 134 / 132 40% 6 19.12.2026 -
Isa Sakamoto Westerlo Aktiv 118 / 117 40% 2 19.12.2026 -
Jonathan Afolabi KV Kortrijk Aktiv 92 / 98 40% 2 19.12.2026 -
García Pascual Cádiz Aktiv 122 / 123 40% 2 19.12.2026 -
Naoufal Bannis Vitesse Aktiv 108 / 110 40% 1 19.12.2026 -
Nardin Mulahusejnović Vojvodina Aktiv 124 / 113 40% 1 17.12.2026 -
Ozziel Herrera Tigres Aktiv 137 / 133 40% 7 16.12.2026 -
Aurélien Scheidler Charleroi Aktiv 116 / 116 40% 5 16.12.2026 -
Myron van Brederode KV Mechelen Aktiv 119 / 127 40% 10 14.12.2026 -
Ondřej Lingr Korona Aktiv 118 / 129 40% 2 14.12.2026 -
Arthur Gomes Dinamo Moscow Aktiv 111 / 125 40% 2 13.12.2026 -
Yuki Kakita FC Copenhagen Aktiv 132 / 141 40% 1 13.12.2026 -
Alejandro Cantero Huesca Aktiv 110 / 120 40% 2 11.12.2026 -
Moses Cobnan Krasnodar Aktiv 108 / 128 40% 1 11.12.2026 -
Negueba Mirassol Aktiv 129 / 116 40% 1 11.12.2026 -
Alejandro Piedrahita Deportivo Pereira Aktiv 119 / 123 40% 7 09.12.2026 -
Moussa Dembélé Al-Ettifaq Aktiv 136 / 135 40% 1 09.12.2026 -
Robert FC Copenhagen Aktiv 121 / 129 40% 1 09.12.2026 -
John Okoye Ebuka Ittihad Aktiv 118 / 107 40% 1 07.12.2026 -
Allahyar Sayyadmanesh Lech Aktiv 128 / 137 40% 2 06.12.2026 -
Soufiane Rahimi Al Ain Aktiv 143 / 142 40% 1 06.12.2026 -
Ignacio Russo Tigre Aktiv 119 / 130 40% 7 05.12.2026 -
Romeo Vermant Club Brugge Aktiv 116 / 122 40% 5 05.12.2026 -
Adam Jakobsen Castellón Aktiv 125 / 123 40% 1 05.12.2026 -
Ricardo Marín Guadalajara Aktiv 130 / 127 40% 3 04.12.2026 -
Rok Zajc NK Domzale Aktiv 108 / 136 40% 1 04.12.2026 -
Fernand Gouré Westerlo Aktiv 115 / 114 40% 1 03.12.2026 -
Kelvin John Aalborg Aktiv 121 / 120 40% 1 03.12.2026 -
Jalen Hawkins ADO Den Haag Aktiv 109 / 111 40% 1 03.12.2026 -
Diego Rossi Monterrey Aktiv 144 / 140 40% 6 02.12.2026 -
Yuma Suzuki Kashima Antlers Aktiv 130 / 140 40% 2 02.12.2026 -
Thierry Ambrose KV Kortrijk Aktiv 131 / 123 40% 6 30.11.2026 -
Florián Monzón Atlas Aktiv 118 / 130 40% 5 30.11.2026 -
Ángel Alarcón Utrecht Aktiv 123 / 115 40% 4 30.11.2026 -
Edwuin Cetré Estudiantes Aktiv 127 / 118 40% 2 29.11.2026 -
Hugo Cuypers Monterrey Aktiv 125 / 129 40% 3 28.11.2026 -
Chris Ramos Botafogo Aktiv 121 / 123 40% 1 28.11.2026 -
Brayan Gil Baltika Aktiv 117 / 109 40% 3 27.11.2026 -
Emmanuel Dennis Brondby Aktiv 118 / 125 40% 1 27.11.2026 -
Omar Campos Cruz Azul Aktiv 129 / 116 40% 1 27.11.2026 -
Egas Cacintura Akhmat Grozny Aktiv 114 / 117 40% 1 24.11.2026 -
Ştefan Baiaram Universitatea Craiova Aktiv 134 / 128 40% 2 23.11.2026 -
Dani de Wit Utrecht Aktiv 119 / 129 40% 3 22.11.2026 -
Mario Soberón Albacete Aktiv 116 / 120 40% 1 22.11.2026 -
Oli McBurnie Hull City Aktiv 129 / 132 40% 1 21.11.2026 -
Alexis Cuello San Lorenzo Aktiv 128 / 119 40% 5 20.11.2026 -
Brayan León Mamelodi Sundowns Aktiv 107 / 129 40% 1 19.11.2026 -
Zakaria El Ouahdi Racing Genk Aktiv 129 / 121 40% 2 18.11.2026 -
Peter Federico Gornik Zabrze Aktiv 129 / 136 40% 1 18.11.2026 -
Oleh Ocheretko Shakhtar Aktiv 127 / 129 40% 1 18.11.2026 -
Iqraam Rayners Mamelodi Sundowns Aktiv 121 / 134 40% 3 17.11.2026 -
Fiete Arp OB Aktiv 140 / 119 40% 1 17.11.2026 -
Karim Konaté Red Bull Salzburg Aktiv 143 / 146 40% 1 17.11.2026 -
Iuri Tavares NK Varazdin Aktiv 117 / 103 40% 1 17.11.2026 -
Kauã Elias Shakhtar Aktiv 127 / 128 40% 1 15.11.2026 -
Tadeo Allende Inter Miami CF Aktiv 121 / 113 40% 4 11.11.2026 -
Ciprian Coman Pandurii Aktiv 128 / 123 40% 2 11.11.2026 -
Manfred Ugalde Spartak Moscow Aktiv 122 / 125 40% 2 09.11.2026 -
Christian Saydee Wigan Athletic Aktiv 115 / 120 40% 1 09.11.2026 -
Alexander Díaz Deportivo Riestra Aktiv 111 / 124 40% 5 08.11.2026 -
Juan Cruz de los Santos Nacional Aktiv 127 / 130 40% 4 05.11.2026 -
Nazar Voloshyn Dynamo Kyiv Aktiv 126 / 122 40% 1 05.11.2026 -
Andreas Helmersen Bodo/Glimt Aktiv 120 / 124 40% 1 05.11.2026 -
Ismael Díaz Leon Aktiv 126 / 121 40% 5 01.11.2026 -
Anosike Ementa Zulte Waregem Aktiv 117 / 105 40% 1 29.10.2026 -
Assad Al Hamlawi Universitatea Craiova Aktiv 129 / 112 40% 1 29.10.2026 -
Adalberto Carrasquilla Pumas UNAM Aktiv 130 / 113 40% 1 29.10.2026 -
Leandro Lozano Boca Juniors Aktiv 123 / 124 40% 1 27.10.2026 -
Juan Bisanz Huracán Aktiv 133 / 130 40% 1 27.10.2026 -
Rodrigo Huescas FC Copenhagen Aktiv 142 / 132 40% 1 27.10.2026 -
Lewis Morgan San Diego Football Club Aktiv 135 / 124 40% 1 26.10.2026 -
Alfredo Morelos Atletico Nacional Aktiv 126 / 131 40% 3 23.10.2026 -
Yorbe Vertessen Red Bull Salzburg Aktiv 129 / 118 40% 1 23.10.2026 -
Michele Cerofolini Bari Aktiv 119 / 128 40% 3 21.10.2026 -
Dinko Horkaš Al Wasl Aktiv 116 / 124 40% 4 21.10.2026 -
Edoardo Corvi Parma Aktiv 130 / 123 40% 3 21.10.2026 -
Marcelo Torres Gimnasia La Plata Aktiv 113 / 117 40% 1 20.10.2026 -
Sebastián Villa Boca Juniors Aktiv 132 / 129 40% 7 19.10.2026 -
Bernardo Fontes Braga Aktiv 133 / 137 40% 2 15.10.2026 -
Ľubomír Belko Viking Aktiv 127 / 116 40% 2 15.10.2026 -
Marvin Keller Young Boys Aktiv 140 / 132 40% 2 14.10.2026 -
Donát Bárány ADO Den Haag Aktiv 104 / 116 40% 1 11.10.2026 -
Brandon Vázquez Austin FC Aktiv 120 / 115 40% 2 07.10.2026 -
João Klauss LA Galaxy Aktiv 130 / 132 40% 3 04.10.2026 -
Timo Werner San Jose Earthquakes Aktiv 137 / 134 40% 4 03.10.2026 -
Antony Alonso Deportivo Riestra Aktiv 125 / 113 40% 4 02.10.2026 -
Brian White Vancouver Whitecaps Aktiv 118 / 120 40% 2 02.10.2026 -
Noel Törnqvist Como Aktiv 130 / 137 40% 1 02.10.2026 -
Dániel Gazdag Columbus Crew Aktiv 120 / 131 40% 6 29.09.2026 -
Justin Hammel Grasshopper Aktiv 118 / 121 40% 1 29.09.2026 -
Koki Ogawa Jubilo Iwata Aktiv 134 / 122 40% 1 27.09.2026 -
George Puşcaş Dinamo Bucharest Aktiv 132 / 122 40% 1 26.09.2026 -
Luka Kulenović Heracles Aktiv 113 / 116 40% 1 26.09.2026 -
Matías Cóccaro Newell's Old Boys Aktiv 116 / 110 40% 1 24.09.2026 -
Indiana Vassilev Philadelphia Union Aktiv 121 / 116 40% 1 24.09.2026 -
Marcus Ingvartsen San Diego Football Club Aktiv 137 / 127 40% 2 21.09.2026 -
Bilal Bayazıt Kayserispor Aktiv 111 / 109 40% 1 21.09.2026 -
Sam Tickle Wigan Athletic Aktiv 120 / 118 40% 1 21.09.2026 -
Xavier Biscayzacú Defensor Sporting Aktiv 126 / 130 40% 1 20.09.2026 -
Kévin Denkey FC Cincinnati Aktiv 120 / 132 40% 3 16.09.2026 -
Keisuke Osako Sanfrecce Hiroshima Aktiv 131 / 150 40% 2 16.09.2026 -
Michael Cooper Sheffield United Aktiv 129 / 134 40% 2 16.09.2026 -
Dominik Takáč Slovan Bratislava Aktiv 128 / 132 40% 2 12.09.2026 -
Mateusz Kochalski Qarabag Aktiv 117 / 124 40% 2 09.09.2026 -
Axel Alderweireld KV Oostende Aktiv 144 / 140 40% 1 09.09.2026 -
Dor Turgeman New England Revolution Aktiv 119 / 116 40% 1 07.09.2026 -
Artem Slesar Zorya Aktiv 112 / 112 40% 1 07.09.2026 -
Dries Fellaini KV Oostende Aktiv 120 / 132 40% 1 07.09.2026 -
Cesar Corona Veracruz Aktiv 125 / 129 40% 2 05.09.2026 -
Danylo Sikan Anderlecht Aktiv 133 / 125 40% 3 04.09.2026 -
Patrick Schulte Columbus Crew Aktiv 123 / 127 40% 1 04.09.2026 -
Elías Rafn Ólafsson FC Midtjylland Aktiv 109 / 118 40% 1 04.09.2026 -
Felipe Parra Envigado Aktiv 118 / 129 40% 1 04.09.2026 -
Chris Brady Chicago Fire Aktiv 116 / 142 40% 1 02.09.2026 -
Taisei Miyashiro Seattle Sounders Aktiv 139 / 133 40% 2 31.08.2026 -
Sebastián Driussi River Plate Aktiv 135 / 132 40% 1 31.08.2026 -
Enzo Geerts Westerlo Aktiv 94 / 106 40% 1 31.08.2026 -
Enzo Copetti Rosario Central Aktiv 128 / 117 40% 1 29.08.2026 -
Elijah Adebayo Luton Town Aktiv 119 / 126 40% 1 28.08.2026 -
Cheikh Sabaly Vancouver Whitecaps Aktiv 121 / 133 40% 2 26.08.2026 -
Guillermo Paiva Junior Aktiv 127 / 118 40% 1 25.08.2026 -
Lazar Carević Famalicao Aktiv 124 / 129 40% 1 25.08.2026 -
Pascal Loretz Luzern Aktiv 125 / 121 40% 1 25.08.2026 -
Miguel Merentiel Boca Juniors Aktiv 130 / 140 40% 1 23.08.2026 -
Louis Munteanu DC United Aktiv 118 / 131 40% 2 22.08.2026 -
Tomoki Hayakawa Feyenoord Aktiv 137 / 138 40% 2 22.08.2026 -
Felipe Zenobio Tigre Aktiv 134 / 120 40% 1 22.08.2026 -
Beau Reus Waasland-Beveren Aktiv 118 / 131 40% 1 21.08.2026 -
Răzvan Sava Universitatea Craiova Aktiv 129 / 130 40% 1 21.08.2026 -
Facundo Kalinger Huracán Aktiv 102 / 108 40% 1 21.08.2026 -
Kyriani Sabbe Club Brugge Aktiv 112 / 130 40% 1 21.08.2026 -
Erison Kawasaki Frontale Aktiv 129 / 131 40% 1 15.08.2026 -
Felipe Augusto Zenit Aktiv 125 / 135 40% 1 12.08.2026 -
Juninho Utrecht Aktiv 125 / 127 40% 2 11.08.2026 -
Percy Erasmus SuperSport United Aktiv 130 / 134 40% 1 10.08.2026 -
Ramiro Ruiz Rodríguez Atlético Tucumán Aktiv 114 / 125 40% 1 10.08.2026 -
Maurits Kjærgaard Red Bull Salzburg Aktiv 133 / 132 40% 1 09.08.2026 -
Clemente Montes Universidad Catolica Aktiv 129 / 129 40% 1 08.08.2026 -
Alexis Vega Toluca Aktiv 146 / 148 40% 1 04.08.2026 -
Theo Corbeanu Toronto FC Aktiv 131 / 122 40% 1 04.08.2026 -
Adriano Bertaccini Anderlecht Aktiv 114 / 121 40% 1 04.08.2026 -
Rome-Jayden Owusu-Oduro AZ Aktiv 131 / 133 40% 1 02.08.2026 -